Hopkins Park, Illinois
Current Conditions -  °F | °C
As of 1:15 PM on Saturday 25 Oct 2014 (Local Time) from KIKK Reporting Station
Clear Clear  
Wind Chill: 71°   Ceiling: Unl
Heat Index: 71°   Visibility: 10mi
Dew Point: 51°   Wind: 9mph
Humidity: 50%   Direction: 310°NW
Pressure: 29.96"   Gusts: NA
Location:  41.06°N, 87.63°W
Report Text: KIKK 251815Z AUTO 31008KT 10SM CLR 21/11 A2996 RMK AO2 T02140105
Loading
Personal Weather Stations






























Interactive Weather Map
Tropical Storm Tracking
New forecast layout! Learn more

10-Day Weather Forecast

Advertisements
Track Severe Weather on mobile